Time;durP1;ratioP1;P1;durP2;ratioP2;P2;SDS_P1;SDS_P2;PMS_P1;PMS_P2;Temp;Humidity;BMP_temperature;BMP_pressure;BME280_temperature;BME280_humidity;BME280_pressure;Samples;Min_cycle;Max_cycle;Signal;HPM_P1;HPM_P2
2022/04/26 03:36:37;;;;;;;13.45;7.68;;;;;;;;;;6309271;22;20192;-61
2022/04/26 03:39:03;;;;;;;16.23;9.07;;;;;;;;;;6309089;22;20616;-61
2022/04/26 03:41:29;;;;;;;15.80;9.20;;;;;;;;;;6308939;22;20150;-61
2022/04/26 03:43:55;;;;;;;18.13;10.93;;;;;;;;;;6309162;22;20144;-61
2022/04/26 03:46:20;;;;;;;16.35;9.55;;;;;;;;;;6309427;22;20215;-61
2022/04/26 03:48:46;;;;;;;15.32;9.18;;;;;;;;;;6309021;22;20139;-60
2022/04/26 03:51:12;;;;;;;20.00;11.63;;;;;;;;;;6308927;22;20167;-61
2022/04/26 03:53:39;;;;;;;18.67;11.52;;;;;;;;;;6281931;22;20550;-61
2022/04/26 03:56:05;;;;;;;18.17;11.05;;;;;;;;;;6309395;22;20455;-61
2022/04/26 03:58:31;;;;;;;17.98;10.60;;;;;;;;;;6308833;22;20135;-61
2022/04/26 04:00:57;;;;;;;20.35;10.98;;;;;;;;;;6309311;22;20455;-61
2022/04/26 04:03:23;;;;;;;15.57;9.15;;;;;;;;;;6311395;22;20222;-61
2022/04/26 04:05:49;;;;;;;16.75;9.50;;;;;;;;;;6312026;22;20139;-61
2022/04/26 04:08:15;;;;;;;19.88;9.63;;;;;;;;;;6308842;22;20378;-61
2022/04/26 04:10:41;;;;;;;14.65;8.63;;;;;;;;;;6309187;22;20170;-61
2022/04/26 04:13:07;;;;;;;14.68;8.85;;;;;;;;;;6308769;22;20542;-61
2022/04/26 04:15:32;;;;;;;13.95;8.07;;;;;;;;;;6308852;22;20150;-61
2022/04/26 04:17:58;;;;;;;19.42;12.07;;;;;;;;;;6308778;22;20146;-61
2022/04/26 04:20:25;;;;;;;17.83;12.05;;;;;;;;;;6308893;22;20227;-61
2022/04/26 04:22:53;;;;;;;15.18;8.93;;;;;;;;;;6308743;22;20560;-61
2022/04/26 04:25:19;;;;;;;19.05;9.65;;;;;;;;;;6309153;22;20146;-61
2022/04/26 04:27:45;;;;;;;13.65;8.43;;;;;;;;;;6308617;22;20143;-61
2022/04/26 04:30:11;;;;;;;16.85;9.85;;;;;;;;;;6308765;22;20238;-61
2022/04/26 04:32:38;;;;;;;14.48;7.40;;;;;;;;;;6308941;22;20143;-61
2022/04/26 04:35:04;;;;;;;13.63;6.85;;;;;;;;;;6308924;22;20145;-61
2022/04/26 04:37:30;;;;;;;10.73;6.72;;;;;;;;;;6308700;22;20488;-61
2022/04/26 04:39:56;;;;;;;11.65;6.55;;;;;;;;;;6308516;22;20170;-61
2022/04/26 04:42:22;;;;;;;9.15;6.20;;;;;;;;;;6308542;22;20157;-62
2022/04/26 04:44:48;;;;;;;10.75;6.80;;;;;;;;;;6308824;22;20170;-61
2022/04/26 04:47:14;;;;;;;12.38;8.65;;;;;;;;;;6308518;22;20203;-61
2022/04/26 04:49:40;;;;;;;14.65;8.27;;;;;;;;;;6308786;22;20143;-60
2022/04/26 04:52:06;;;;;;;13.63;7.43;;;;;;;;;;6308977;22;20167;-61
2022/04/26 04:54:32;;;;;;;9.80;7.10;;;;;;;;;;6309007;22;20147;-61
2022/04/26 04:56:58;;;;;;;12.43;6.28;;;;;;;;;;6309069;22;20170;-60
2022/04/26 04:59:24;;;;;;;12.77;7.78;;;;;;;;;;6309043;22;20629;-61
2022/04/26 05:01:49;;;;;;;16.17;9.65;;;;;;;;;;6308782;22;20167;-61
2022/04/26 05:04:16;;;;;;;15.05;8.63;;;;;;;;;;6308229;22;20497;-61
2022/04/26 05:06:41;;;;;;;11.95;6.80;;;;;;;;;;6308326;22;20138;-62
2022/04/26 05:09:07;;;;;;;9.80;6.70;;;;;;;;;;6308402;22;20153;-62
2022/04/26 05:11:33;;;;;;;10.60;6.70;;;;;;;;;;6308194;22;20571;-62
2022/04/26 05:13:59;;;;;;;11.15;6.60;;;;;;;;;;6308237;22;20138;-61
2022/04/26 05:16:25;;;;;;;10.95;7.45;;;;;;;;;;6308224;22;20214;-62
2022/04/26 05:18:51;;;;;;;11.70;7.97;;;;;;;;;;6308706;22;20488;-61
2022/04/26 05:21:17;;;;;;;12.73;7.13;;;;;;;;;;6308256;22;20597;-62
2022/04/26 05:26:27;;;;;;;12.52;7.97;;;;;;;;;;6308309;22;20141;-61
2022/04/26 05:28:53;;;;;;;10.60;7.90;;;;;;;;;;6308261;22;20154;-62
2022/04/26 05:31:19;;;;;;;11.32;7.38;;;;;;;;;;6308527;22;20574;-61
2022/04/26 05:33:45;;;;;;;10.88;7.80;;;;;;;;;;6308016;22;20581;-61
2022/04/26 05:36:11;;;;;;;16.13;7.65;;;;;;;;;;6308297;22;20140;-61
2022/04/26 05:38:37;;;;;;;13.52;7.63;;;;;;;;;;6308527;22;20222;-61
2022/04/26 05:41:03;;;;;;;20.05;6.65;;;;;;;;;;6308046;22;20145;-61
2022/04/26 05:43:29;;;;;;;11.55;6.07;;;;;;;;;;6309271;22;20448;-62
2022/04/26 05:45:55;;;;;;;12.60;6.25;;;;;;;;;;6309413;22;20138;-62
2022/04/26 05:48:21;;;;;;;6.93;4.75;;;;;;;;;;6308322;22;20554;-62
2022/04/26 05:50:47;;;;;;;11.32;5.75;;;;;;;;;;6308352;22;20170;-62
2022/04/26 05:53:12;;;;;;;10.85;5.47;;;;;;;;;;6308098;22;20160;-62
2022/04/26 05:55:39;;;;;;;11.30;5.93;;;;;;;;;;6308623;22;20334;-61
2022/04/26 05:58:05;;;;;;;13.68;6.22;;;;;;;;;;6308530;22;20199;-62
2022/04/26 06:00:31;;;;;;;9.18;6.38;;;;;;;;;;6308067;22;20276;-61
2022/04/26 06:02:57;;;;;;;12.43;6.72;;;;;;;;;;6308817;22;20620;-62
2022/04/26 06:05:23;;;;;;;15.40;6.82;;;;;;;;;;6310423;22;20188;-62
2022/04/26 06:07:49;;;;;;;10.02;6.60;;;;;;;;;;6310301;22;20139;-62
2022/04/26 06:10:15;;;;;;;10.85;6.35;;;;;;;;;;6310197;22;20145;-62
2022/04/26 06:12:44;;;;;;;11.05;6.18;;;;;;;;;;6310342;22;20175;-62
2022/04/26 06:15:10;;;;;;;9.60;5.30;;;;;;;;;;6310527;22;20139;-61
2022/04/26 06:17:36;;;;;;;7.05;5.28;;;;;;;;;;6310044;22;20143;-60
2022/04/26 06:20:02;;;;;;;9.27;5.78;;;;;;;;;;6310088;22;20139;-61
2022/04/26 06:22:28;;;;;;;8.18;5.30;;;;;;;;;;6310426;22;20153;-62
2022/04/26 06:24:54;;;;;;;9.13;5.72;;;;;;;;;;6310124;22;20138;-61
2022/04/26 06:27:20;;;;;;;8.32;5.63;;;;;;;;;;6310561;22;20135;-62
2022/04/26 06:29:46;;;;;;;8.52;5.30;;;;;;;;;;6310032;22;20181;-61
2022/04/26 06:32:12;;;;;;;8.10;5.28;;;;;;;;;;6309719;22;20570;-60
2022/04/26 06:34:38;;;;;;;7.00;3.75;;;;;;;;;;6309925;22;20134;-62
2022/04/26 06:37:04;;;;;;;5.20;3.60;;;;;;;;;;6309902;22;20150;-62
2022/04/26 06:39:30;;;;;;;6.05;3.83;;;;;;;;;;6309867;22;20150;-62
2022/04/26 06:41:56;;;;;;;6.82;4.20;;;;;;;;;;6309681;22;20165;-61
2022/04/26 06:44:22;;;;;;;2.97;2.58;;;;;;;;;;6310256;22;20621;-61
2022/04/26 06:46:48;;;;;;;4.28;2.72;;;;;;;;;;6310153;22;20140;-61
2022/04/26 06:49:14;;;;;;;5.38;3.25;;;;;;;;;;6309703;22;20687;-61
2022/04/26 06:51:44;;;;;;;6.15;2.80;;;;;;;;;;6309819;22;20166;-61
2022/04/26 06:54:10;;;;;;;4.72;4.07;;;;;;;;;;6310007;22;20151;-61
2022/04/26 06:56:36;;;;;;;3.92;3.30;;;;;;;;;;6310014;22;20621;-61
2022/04/26 06:59:02;;;;;;;4.95;3.88;;;;;;;;;;6310834;22;20162;-61
2022/04/26 07:01:28;;;;;;;5.75;3.58;;;;;;;;;;6310060;22;20162;-61
2022/04/26 07:03:54;;;;;;;3.80;2.58;;;;;;;;;;6309829;22;20143;-61
2022/04/26 07:06:20;;;;;;;3.80;2.95;;;;;;;;;;6310196;22;20344;-61
2022/04/26 07:08:47;;;;;;;4.50;2.63;;;;;;;;;;6310078;22;20517;-61
2022/04/26 07:11:15;;;;;;;4.45;3.10;;;;;;;;;;6310310;22;20590;-61
2022/04/26 07:13:41;;;;;;;2.83;2.50;;;;;;;;;;6309474;22;20138;-62
2022/04/26 07:16:07;;;;;;;3.55;2.22;;;;;;;;;;6309364;22;20200;-62
2022/04/26 07:18:36;;;;;;;3.38;2.17;;;;;;;;;;6309756;22;20189;-62
2022/04/26 07:21:02;;;;;;;2.10;1.90;;;;;;;;;;6309165;22;20154;-62
2022/04/26 07:23:27;;;;;;;2.53;1.88;;;;;;;;;;6310414;22;20154;-62
2022/04/26 07:25:55;;;;;;;2.80;2.40;;;;;;;;;;6310230;22;20143;-62
2022/04/26 07:28:21;;;;;;;4.65;2.67;;;;;;;;;;6309328;22;20142;-62
2022/04/26 07:30:47;;;;;;;3.28;2.40;;;;;;;;;;6309188;22;20201;-62
2022/04/26 07:35:57;;;;;;;3.97;2.30;;;;;;;;;;6309394;22;20600;-62
2022/04/26 07:38:23;;;;;;;5.07;2.28;;;;;;;;;;6309812;22;20136;-61
2022/04/26 07:40:49;;;;;;;2.47;2.08;;;;;;;;;;6309003;22;20241;-61
2022/04/26 07:43:15;;;;;;;3.58;2.40;;;;;;;;;;6310105;22;20223;-61
2022/04/26 07:45:43;;;;;;;4.78;2.17;;;;;;;;;;6310071;22;20139;-62
2022/04/26 07:48:09;;;;;;;2.33;2.13;;;;;;;;;;6310094;22;20173;-61
2022/04/26 07:50:35;;;;;;;4.00;2.50;;;;;;;;;;6309447;22;20414;-61
2022/04/26 07:53:02;;;;;;;2.63;2.42;;;;;;;;;;6309273;22;20135;-61
2022/04/26 07:55:29;;;;;;;2.13;1.83;;;;;;;;;;6309092;22;20139;-60
2022/04/26 07:57:55;;;;;;;2.97;2.20;;;;;;;;;;6309759;22;20139;-61
2022/04/26 08:00:21;;;;;;;2.58;2.08;;;;;;;;;;6309702;22;20146;-62
2022/04/26 08:02:47;;;;;;;2.65;2.08;;;;;;;;;;6309481;22;20603;-61
2022/04/26 08:05:14;;;;;;;3.67;2.25;;;;;;;;;;6309383;22;20143;-61
2022/04/26 08:07:41;;;;;;;2.90;2.30;;;;;;;;;;6309675;22;20146;-61
2022/04/26 08:10:11;;;;;;;3.47;2.40;;;;;;;;;;6309231;22;20230;-60
2022/04/26 08:12:40;;;;;;;2.47;2.13;;;;;;;;;;6309225;22;20167;-61
2022/04/26 08:15:07;;;;;;;5.18;2.42;;;;;;;;;;6309136;22;20143;-61
2022/04/26 08:17:33;;;;;;;2.40;1.88;;;;;;;;;;6308755;22;20139;-61
2022/04/26 08:19:59;;;;;;;2.17;1.67;;;;;;;;;;6308917;22;20170;-63
2022/04/26 08:22:25;;;;;;;1.50;1.33;;;;;;;;;;6309064;22;20166;-61
2022/04/26 08:27:36;;;;;;;2.03;1.63;;;;;;;;;;6308979;22;20146;-63
2022/04/26 08:30:04;;;;;;;3.15;1.77;;;;;;;;;;6308661;22;20182;-63
2022/04/26 08:32:43;;;;;;;3.22;2.38;;;;;;;;;;6308965;22;20177;-64
2022/04/26 08:35:10;;;;;;;2.13;1.88;;;;;;;;;;6308505;22;20139;-63
2022/04/26 08:37:36;;;;;;;2.03;1.83;;;;;;;;;;6308977;22;20139;-63
2022/04/26 08:40:05;;;;;;;2.55;2.03;;;;;;;;;;6308548;22;20149;-63
2022/04/26 08:42:37;;;;;;;4.20;1.90;;;;;;;;;;6309045;22;20147;-63
2022/04/26 08:45:07;;;;;;;3.63;1.65;;;;;;;;;;6308591;22;20153;-63
2022/04/26 08:53:04;;;;;;;5.38;2.00;;;;;;;;;;6309254;22;20142;-62
2022/04/26 08:55:33;;;;;;;3.78;1.60;;;;;;;;;;6309312;22;20157;-63
2022/04/26 08:57:59;;;;;;;2.15;1.50;;;;;;;;;;6309507;22;20196;-62
2022/04/26 09:00:25;;;;;;;1.75;1.38;;;;;;;;;;6309895;22;20142;-63
2022/04/26 09:03:02;;;;;;;2.13;1.70;;;;;;;;;;6309801;22;20460;-63
2022/04/26 09:05:28;;;;;;;1.75;1.40;;;;;;;;;;6308380;22;20142;-63
2022/04/26 09:07:54;;;;;;;1.80;1.50;;;;;;;;;;6308870;22;20157;-63
2022/04/26 09:10:21;;;;;;;2.10;1.33;;;;;;;;;;6308181;22;20217;-63
2022/04/26 09:13:07;;;;;;;2.00;1.52;;;;;;;;;;6308745;22;20169;-64
2022/04/26 09:15:34;;;;;;;4.10;1.85;;;;;;;;;;6308373;22;20135;-63
2022/04/26 09:18:13;;;;;;;1.45;1.35;;;;;;;;;;6308670;22;20150;-63
2022/04/26 09:20:39;;;;;;;1.83;1.63;;;;;;;;;;6308163;22;20554;-63
2022/04/26 09:23:14;;;;;;;3.15;1.58;;;;;;;;;;6308285;22;20166;-63
2022/04/26 09:25:40;;;;;;;3.78;2.83;;;;;;;;;;6308274;22;20546;-63
2022/04/26 09:28:07;;;;;;;3.15;1.63;;;;;;;;;;6308253;22;20139;-63
2022/04/26 09:30:33;;;;;;;1.75;1.60;;;;;;;;;;6308135;22;20188;-63
2022/04/26 09:32:59;;;;;;;2.50;1.50;;;;;;;;;;6308513;22;20222;-63
2022/04/26 09:35:29;;;;;;;1.73;1.35;;;;;;;;;;6308059;22;20162;-63
2022/04/26 09:37:55;;;;;;;1.77;1.67;;;;;;;;;;6308608;22;20218;-63
2022/04/26 09:40:21;;;;;;;3.95;1.55;;;;;;;;;;6308465;22;20252;-63
2022/04/26 09:42:48;;;;;;;3.60;1.55;;;;;;;;;;6309016;22;20154;-63
2022/04/26 09:45:16;;;;;;;1.90;1.48;;;;;;;;;;6308527;22;20154;-63
2022/04/26 09:47:43;;;;;;;1.90;1.63;;;;;;;;;;6307900;22;20421;-63
2022/04/26 09:50:14;;;;;;;2.03;1.42;;;;;;;;;;6308192;22;20150;-64
2022/04/26 09:52:40;;;;;;;1.50;1.40;;;;;;;;;;6307968;22;20186;-63
2022/04/26 09:55:07;;;;;;;2.38;1.60;;;;;;;;;;6281006;22;20150;-63
2022/04/26 09:57:34;;;;;;;2.47;1.50;;;;;;;;;;6308136;22;20139;-63
2022/04/26 10:00:00;;;;;;;1.83;1.70;;;;;;;;;;6308017;22;20149;-63
2022/04/26 10:02:30;;;;;;;1.92;1.73;;;;;;;;;;6280829;22;20566;-63
2022/04/26 10:04:59;;;;;;;2.88;2.10;;;;;;;;;;6308220;22;20139;-63
2022/04/26 10:07:26;;;;;;;2.10;1.88;;;;;;;;;;6308129;22;20153;-63
2022/04/26 10:09:53;;;;;;;2.50;2.30;;;;;;;;;;6308194;22;20444;-63
2022/04/26 10:12:20;;;;;;;3.03;1.77;;;;;;;;;;6307857;22;20647;-63
2022/04/26 10:14:46;;;;;;;2.63;2.00;;;;;;;;;;6307953;22;20558;-63
2022/04/26 10:17:14;;;;;;;3.53;2.28;;;;;;;;;;6308083;22;20142;-63
2022/04/26 10:19:45;;;;;;;3.67;2.15;;;;;;;;;;6308100;22;20139;-64
2022/04/26 10:22:15;;;;;;;3.33;2.47;;;;;;;;;;6307913;22;20127;-63
2022/04/26 10:24:41;;;;;;;3.10;2.60;;;;;;;;;;6308387;22;20488;-63
2022/04/26 10:27:17;;;;;;;6.38;2.58;;;;;;;;;;6308557;22;20146;-63
2022/04/26 10:29:45;;;;;;;3.22;2.20;;;;;;;;;;6308240;22;20461;-63
2022/04/26 10:32:11;;;;;;;3.40;2.13;;;;;;;;;;6308055;22;20246;-63
2022/04/26 10:34:39;;;;;;;1.90;1.73;;;;;;;;;;6308123;22;20235;-63
2022/04/26 10:37:11;;;;;;;3.80;2.10;;;;;;;;;;6308409;22;20220;-62
2022/04/26 10:39:37;;;;;;;2.53;2.33;;;;;;;;;;6308915;22;20135;-62
2022/04/26 10:42:07;;;;;;;2.72;2.00;;;;;;;;;;6308337;22;20250;-62
2022/04/26 10:44:38;;;;;;;3.55;2.28;;;;;;;;;;6308259;22;20554;-62
2022/04/26 10:47:03;;;;;;;6.18;2.78;;;;;;;;;;6309498;22;20260;-63
2022/04/26 10:49:32;;;;;;;2.58;2.38;;;;;;;;;;6309831;22;20225;-63
2022/04/26 10:52:13;;;;;;;2.92;2.60;;;;;;;;;;6310020;22;20227;-62
2022/04/26 10:54:48;;;;;;;3.22;2.70;;;;;;;;;;6310246;22;20143;-63
2022/04/26 10:57:18;;;;;;;3.80;3.40;;;;;;;;;;6310207;22;20149;-65
2022/04/26 10:59:45;;;;;;;5.30;3.05;;;;;;;;;;6310379;22;20534;-64
2022/04/26 11:02:12;;;;;;;4.90;2.80;;;;;;;;;;6309378;22;20142;-63
2022/04/26 11:04:38;;;;;;;3.13;2.65;;;;;;;;;;6309793;22;20146;-63
2022/04/26 11:07:15;;;;;;;3.03;2.72;;;;;;;;;;6309341;22;20143;-63
2022/04/26 11:09:47;;;;;;;3.90;3.42;;;;;;;;;;6309640;22;20142;-63
2022/04/26 11:12:13;;;;;;;3.53;2.95;;;;;;;;;;6282328;22;20174;-64
2022/04/26 11:14:42;;;;;;;4.80;3.30;;;;;;;;;;6309408;22;20135;-64
2022/04/26 11:17:08;;;;;;;4.13;3.55;;;;;;;;;;6282331;22;20554;-64
2022/04/26 11:19:36;;;;;;;3.83;3.35;;;;;;;;;;6309510;22;20139;-63
2022/04/26 11:22:05;;;;;;;3.67;3.17;;;;;;;;;;6309299;22;20143;-62
2022/04/26 11:30:02;;;;;;;4.13;3.08;;;;;;;;;;6309331;22;20219;-61
2022/04/26 11:32:28;;;;;;;3.30;3.00;;;;;;;;;;6309425;22;20239;-63
2022/04/26 11:34:54;;;;;;;4.20;3.08;;;;;;;;;;6309304;22;20146;-63
2022/04/26 11:37:20;;;;;;;3.80;3.10;;;;;;;;;;6309247;22;20138;-63
2022/04/26 11:39:46;;;;;;;4.38;3.30;;;;;;;;;;6309866;22;20139;-63
2022/04/26 11:42:13;;;;;;;3.63;2.88;;;;;;;;;;6309448;22;20496;-63
2022/04/26 11:44:58;;;;;;;4.15;3.50;;;;;;;;;;6309246;22;20169;-62
2022/04/26 11:47:37;;;;;;;4.50;2.45;;;;;;;;;;6309285;22;20172;-63
2022/04/26 11:50:13;;;;;;;3.33;2.30;;;;;;;;;;6309460;22;20142;-63
2022/04/26 11:52:39;;;;;;;4.22;2.60;;;;;;;;;;6310093;22;20415;-61
2022/04/26 11:55:06;;;;;;;5.65;3.00;;;;;;;;;;6309288;22;20554;-61
2022/04/26 11:57:32;;;;;;;5.88;2.50;;;;;;;;;;6309809;22;20139;-63
2022/04/26 11:59:59;;;;;;;2.95;2.55;;;;;;;;;;6311150;22;20135;-63
2022/04/26 12:02:26;;;;;;;3.55;2.78;;;;;;;;;;6316834;22;20138;-63
2022/04/26 12:04:53;;;;;;;3.58;2.90;;;;;;;;;;6309004;22;20138;-63
2022/04/26 12:07:19;;;;;;;2.60;2.40;;;;;;;;;;6309161;22;20218;-63
2022/04/26 12:09:45;;;;;;;5.75;2.83;;;;;;;;;;6309214;22;20154;-63
2022/04/26 12:12:12;;;;;;;4.32;3.28;;;;;;;;;;6308878;22;20249;-63
2022/04/26 12:14:40;;;;;;;3.17;2.85;;;;;;;;;;6309066;22;20139;-62
2022/04/26 12:17:18;;;;;;;3.85;3.08;;;;;;;;;;6309058;22;20139;-63
2022/04/26 12:19:50;;;;;;;4.03;2.97;;;;;;;;;;6309098;22;20127;-63
2022/04/26 12:22:17;;;;;;;4.65;3.40;;;;;;;;;;6308886;22;20417;-62
2022/04/26 12:24:46;;;;;;;3.85;2.90;;;;;;;;;;6308743;22;20147;-62
2022/04/26 12:27:13;;;;;;;5.25;3.10;;;;;;;;;;6308502;22;20210;-62
2022/04/26 12:29:40;;;;;;;3.83;2.80;;;;;;;;;;6308620;22;20170;-63
2022/04/26 12:32:10;;;;;;;4.35;3.28;;;;;;;;;;6308500;22;20167;-62
2022/04/26 12:34:36;;;;;;;2.88;2.58;;;;;;;;;;6308552;22;20150;-62
2022/04/26 12:37:03;;;;;;;4.20;2.90;;;;;;;;;;6308957;22;20217;-61
2022/04/26 12:39:44;;;;;;;3.25;2.72;;;;;;;;;;6308944;22;20150;-62
2022/04/26 12:42:12;;;;;;;3.63;2.25;;;;;;;;;;6308800;22;20161;-62
2022/04/26 12:44:48;;;;;;;2.53;2.13;;;;;;;;;;6308818;22;20204;-62
2022/04/26 12:52:45;;;;;;;3.95;2.30;;;;;;;;;;6308428;22;20208;-62
2022/04/26 12:55:11;;;;;;;3.67;3.00;;;;;;;;;;6308725;22;20139;-62
2022/04/26 12:57:46;;;;;;;3.50;2.40;;;;;;;;;;6308216;22;20143;-62
2022/04/26 13:00:13;;;;;;;3.30;2.95;;;;;;;;;;6308759;22;20516;-60
2022/04/26 13:02:39;;;;;;;2.78;2.40;;;;;;;;;;6308286;22;20208;-61
2022/04/26 13:05:05;;;;;;;3.25;2.78;;;;;;;;;;6308836;22;20154;-61
2022/04/26 13:07:30;;;;;;;2.88;2.47;;;;;;;;;;6308215;22;20143;-60
2022/04/26 13:09:56;;;;;;;4.72;2.92;;;;;;;;;;6308527;22;20569;-60
2022/04/26 13:12:22;;;;;;;3.28;2.97;;;;;;;;;;6308805;22;20163;-61
2022/04/26 13:14:48;;;;;;;3.40;2.85;;;;;;;;;;6308161;22;20139;-61
2022/04/26 13:17:14;;;;;;;3.70;3.30;;;;;;;;;;6308052;22;20140;-61
2022/04/26 13:19:40;;;;;;;3.88;3.40;;;;;;;;;;6308173;22;20174;-61
2022/04/26 13:22:06;;;;;;;5.75;3.70;;;;;;;;;;6308171;22;20161;-59
2022/04/26 13:24:32;;;;;;;6.10;3.97;;;;;;;;;;6308067;22;20143;-61
2022/04/26 13:26:58;;;;;;;4.47;3.95;;;;;;;;;;6308321;22;20147;-60
2022/04/26 13:29:24;;;;;;;5.00;4.45;;;;;;;;;;6308269;22;20178;-61
2022/04/26 13:31:50;;;;;;;6.03;4.25;;;;;;;;;;6308229;22;20464;-61
2022/04/26 13:34:16;;;;;;;5.85;4.40;;;;;;;;;;6308582;22;20496;-61
2022/04/26 13:36:42;;;;;;;5.43;4.25;;;;;;;;;;6308199;22;20135;-61
2022/04/26 13:39:08;;;;;;;5.10;4.45;;;;;;;;;;6308307;22;20146;-60
2022/04/26 13:41:34;;;;;;;4.60;3.97;;;;;;;;;;6308541;22;20585;-61
2022/04/26 13:44:00;;;;;;;6.40;4.20;;;;;;;;;;6308019;22;20139;-60
2022/04/26 13:46:26;;;;;;;4.95;4.30;;;;;;;;;;6308375;22;20174;-61
2022/04/26 13:48:52;;;;;;;5.90;4.50;;;;;;;;;;6308574;22;20225;-61
2022/04/26 13:51:18;;;;;;;4.72;4.32;;;;;;;;;;6310540;22;20159;-60
2022/04/26 13:53:44;;;;;;;6.55;4.50;;;;;;;;;;6309155;22;20148;-61
2022/04/26 13:56:10;;;;;;;5.75;4.57;;;;;;;;;;6307945;22;20212;-61
2022/04/26 13:58:36;;;;;;;6.65;4.75;;;;;;;;;;6308599;22;20135;-61
2022/04/26 14:01:02;;;;;;;5.72;4.65;;;;;;;;;;6309743;22;20170;-62
2022/04/26 14:03:28;;;;;;;6.03;4.50;;;;;;;;;;6309916;22;20146;-61
2022/04/26 14:05:55;;;;;;;6.30;4.43;;;;;;;;;;6308347;22;20218;-61
2022/04/26 14:08:21;;;;;;;6.47;4.07;;;;;;;;;;6308081;22;20424;-60
2022/04/26 14:10:46;;;;;;;5.45;4.72;;;;;;;;;;6308128;22;20153;-62
2022/04/26 14:13:12;;;;;;;5.40;4.65;;;;;;;;;;6307870;22;20658;-62
2022/04/26 14:23:52;;;;;;;5.13;4.10;;;;;;;;;;6308736;22;20204;-61
2022/04/26 14:26:18;;;;;;;5.38;4.47;;;;;;;;;;6310511;22;20146;-61
2022/04/26 14:28:44;;;;;;;5.63;4.90;;;;;;;;;;6310309;22;20436;-62
2022/04/26 14:31:10;;;;;;;5.00;4.50;;;;;;;;;;6309977;22;20219;-62
2022/04/26 14:33:36;;;;;;;5.35;4.82;;;;;;;;;;6310130;22;20282;-60
2022/04/26 14:36:02;;;;;;;5.68;5.07;;;;;;;;;;6309655;22;20565;-63
2022/04/26 14:38:28;;;;;;;7.28;4.85;;;;;;;;;;6309878;22;20437;-63
2022/04/26 14:40:54;;;;;;;4.88;4.10;;;;;;;;;;6309642;22;20158;-63
2022/04/26 14:43:20;;;;;;;4.80;4.10;;;;;;;;;;6309392;22;20208;-64
2022/04/26 14:45:46;;;;;;;5.38;4.80;;;;;;;;;;6309815;22;20158;-64
2022/04/26 14:48:14;;;;;;;5.90;4.50;;;;;;;;;;6310157;22;20415;-64
2022/04/26 14:50:41;;;;;;;5.00;4.50;;;;;;;;;;6309809;22;20150;-64
2022/04/26 14:53:07;;;;;;;6.22;4.57;;;;;;;;;;6309903;22;20142;-64
2022/04/26 14:55:33;;;;;;;4.68;4.18;;;;;;;;;;6309375;22;20214;-64
2022/04/26 14:57:59;;;;;;;4.88;4.38;;;;;;;;;;6309656;22;20226;-64
2022/04/26 15:00:25;;;;;;;5.95;4.13;;;;;;;;;;6309619;22;20153;-64
2022/04/26 15:02:51;;;;;;;6.38;4.03;;;;;;;;;;6309354;22;20555;-63
2022/04/26 15:05:18;;;;;;;5.40;4.70;;;;;;;;;;6309496;22;20152;-63
2022/04/26 15:10:29;;;;;;;4.47;4.07;;;;;;;;;;6309595;22;20304;-63
2022/04/26 15:18:24;;;;;;;3.80;3.47;;;;;;;;;;6309597;22;20138;-63
2022/04/26 15:20:51;;;;;;;4.47;3.85;;;;;;;;;;6309240;22;20138;-63
2022/04/26 15:23:18;;;;;;;4.68;3.67;;;;;;;;;;6309580;22;20138;-63
2022/04/26 15:25:55;;;;;;;4.88;3.88;;;;;;;;;;6309423;22;20142;-64
2022/04/26 15:28:21;;;;;;;4.90;4.25;;;;;;;;;;6309624;22;20422;-64
2022/04/26 15:30:48;;;;;;;4.45;4.05;;;;;;;;;;6308963;22;20276;-64
2022/04/26 15:33:15;;;;;;;4.22;3.83;;;;;;;;;;6309467;22;20561;-63
2022/04/26 15:35:42;;;;;;;5.70;4.28;;;;;;;;;;6309265;22;20150;-63
2022/04/26 15:38:10;;;;;;;4.40;4.07;;;;;;;;;;6309658;22;20153;-63
2022/04/26 15:40:36;;;;;;;4.40;3.90;;;;;;;;;;6309048;22;20448;-62
2022/04/26 15:43:04;;;;;;;4.10;3.70;;;;;;;;;;6282478;22;20142;-63
2022/04/26 15:45:30;;;;;;;3.75;3.35;;;;;;;;;;6309260;22;20130;-63
2022/04/26 15:47:56;;;;;;;3.40;3.10;;;;;;;;;;6309419;22;20531;-63
2022/04/26 15:50:21;;;;;;;3.20;2.90;;;;;;;;;;6309216;22;20135;-63
2022/04/26 15:52:47;;;;;;;3.75;3.45;;;;;;;;;;6309646;22;20161;-63
2022/04/26 15:55:13;;;;;;;4.32;3.92;;;;;;;;;;6309466;22;20144;-63
2022/04/26 15:57:42;;;;;;;4.43;4.03;;;;;;;;;;6309036;22;20511;-62
2022/04/26 16:00:08;;;;;;;4.57;3.97;;;;;;;;;;6309361;22;20142;-63
2022/04/26 16:02:34;;;;;;;4.10;3.70;;;;;;;;;;6308907;22;20138;-63
2022/04/26 16:05:00;;;;;;;5.28;3.83;;;;;;;;;;6309322;22;20138;-63
2022/04/26 16:07:26;;;;;;;4.90;3.95;;;;;;;;;;6308884;22;20165;-63
2022/04/26 16:20:50;;;;;;;3.72;3.42;;;;;;;;;;6308759;22;20137;-63
2022/04/26 16:23:16;;;;;;;4.15;3.75;;;;;;;;;;6308626;22;20174;-63
2022/04/26 16:25:42;;;;;;;4.07;3.60;;;;;;;;;;6308837;22;20204;-63
2022/04/26 16:28:09;;;;;;;4.10;3.70;;;;;;;;;;6308741;22;20139;-63
2022/04/26 16:30:35;;;;;;;4.07;3.70;;;;;;;;;;6308519;22;20150;-64
2022/04/26 16:33:01;;;;;;;4.40;3.50;;;;;;;;;;6308543;22;20170;-63
2022/04/26 16:35:29;;;;;;;3.78;3.47;;;;;;;;;;6281511;22;20323;-62
2022/04/26 16:37:55;;;;;;;4.53;3.50;;;;;;;;;;6309030;22;20154;-62
2022/04/26 16:40:21;;;;;;;4.32;3.72;;;;;;;;;;6308879;22;20221;-62
2022/04/26 16:42:47;;;;;;;4.00;3.58;;;;;;;;;;6308831;22;20150;-62
2022/04/26 16:45:13;;;;;;;6.15;4.53;;;;;;;;;;6308785;22;20153;-62
2022/04/26 16:47:39;;;;;;;4.78;4.00;;;;;;;;;;6308142;22;20149;-62
2022/04/26 16:50:06;;;;;;;4.07;3.70;;;;;;;;;;6308535;22;20142;-62
2022/04/26 16:52:32;;;;;;;4.35;3.45;;;;;;;;;;6308582;22;20173;-62
2022/04/26 16:54:58;;;;;;;4.88;3.88;;;;;;;;;;6308477;22;20139;-62
2022/04/26 16:57:26;;;;;;;4.63;3.40;;;;;;;;;;6308987;22;20134;-61
2022/04/26 16:59:53;;;;;;;4.05;3.65;;;;;;;;;;6308874;22;20486;-62
2022/04/26 17:02:19;;;;;;;4.72;4.10;;;;;;;;;;6308825;22;20206;-62
2022/04/26 17:04:45;;;;;;;4.50;4.10;;;;;;;;;;6309476;22;20230;-62
2022/04/26 17:07:12;;;;;;;4.00;3.70;;;;;;;;;;6309098;22;20142;-62
2022/04/26 17:09:38;;;;;;;4.68;4.10;;;;;;;;;;6309302;22;20142;-62
2022/04/26 17:12:04;;;;;;;6.70;4.35;;;;;;;;;;6308344;22;20169;-62
2022/04/26 17:14:34;;;;;;;4.15;3.75;;;;;;;;;;6308842;22;20154;-62
2022/04/26 17:17:00;;;;;;;4.82;4.20;;;;;;;;;;6308511;22;20142;-62
2022/04/26 17:19:27;;;;;;;5.18;4.18;;;;;;;;;;6308576;22;20161;-62
2022/04/26 17:21:54;;;;;;;4.40;4.00;;;;;;;;;;6308181;22;20451;-62
2022/04/26 17:27:08;;;;;;;4.70;4.30;;;;;;;;;;6308283;22;20169;-62
2022/04/26 17:29:34;;;;;;;4.55;4.13;;;;;;;;;;6308376;22;20173;-62
2022/04/26 17:32:00;;;;;;;5.88;4.45;;;;;;;;;;6308188;22;20192;-62
2022/04/26 17:34:26;;;;;;;5.50;4.03;;;;;;;;;;6308064;22;20414;-62
2022/04/26 17:36:52;;;;;;;6.13;4.90;;;;;;;;;;6308545;22;20140;-62
2022/04/26 17:39:20;;;;;;;4.72;4.30;;;;;;;;;;6308844;22;20319;-62
2022/04/26 17:41:47;;;;;;;6.50;4.30;;;;;;;;;;6308528;22;20169;-61
2022/04/26 17:44:13;;;;;;;5.20;4.70;;;;;;;;;;6308107;22;20577;-62
2022/04/26 17:46:42;;;;;;;4.43;4.03;;;;;;;;;;6308443;22;20168;-62
2022/04/26 17:49:08;;;;;;;4.80;3.88;;;;;;;;;;6308295;22;20223;-62
2022/04/26 17:51:34;;;;;;;4.97;4.00;;;;;;;;;;6308221;22;20566;-62
2022/04/26 17:56:45;;;;;;;3.70;3.40;;;;;;;;;;6307887;22;20141;-61
2022/04/26 17:59:11;;;;;;;4.88;4.32;;;;;;;;;;6308258;22;20488;-61
2022/04/26 18:01:38;;;;;;;4.20;3.80;;;;;;;;;;6308233;22;20181;-63
2022/04/26 18:04:05;;;;;;;4.10;3.70;;;;;;;;;;6308333;22;20142;-61
2022/04/26 18:06:31;;;;;;;5.55;4.38;;;;;;;;;;6308166;22;20150;-61
2022/04/26 18:08:56;;;;;;;4.60;4.10;;;;;;;;;;6307942;22;20143;-60
2022/04/26 18:11:22;;;;;;;4.90;4.38;;;;;;;;;;6307714;22;20176;-60
2022/04/26 18:13:52;;;;;;;7.20;4.60;;;;;;;;;;6308715;22;20139;-60
2022/04/26 18:16:18;;;;;;;5.35;4.53;;;;;;;;;;6309196;22;20146;-61
2022/04/26 18:18:44;;;;;;;4.93;4.38;;;;;;;;;;6308385;22;20150;-62
2022/04/26 18:21:10;;;;;;;5.38;4.50;;;;;;;;;;6308189;22;20143;-61
2022/04/26 18:23:37;;;;;;;6.47;4.57;;;;;;;;;;6309021;22;20143;-61
2022/04/26 18:26:12;;;;;;;4.95;4.30;;;;;;;;;;6308190;22;20486;-62
2022/04/26 18:28:39;;;;;;;7.22;5.07;;;;;;;;;;6308737;22;20126;-62
2022/04/26 18:31:06;;;;;;;5.22;4.60;;;;;;;;;;6309128;22;20536;-59
2022/04/26 18:33:32;;;;;;;5.93;4.25;;;;;;;;;;6309265;22;20143;-60
2022/04/26 18:35:58;;;;;;;5.35;4.20;;;;;;;;;;6309193;22;20147;-61
2022/04/26 18:38:24;;;;;;;5.70;4.68;;;;;;;;;;6308957;22;20150;-61
2022/04/26 18:40:51;;;;;;;5.85;4.72;;;;;;;;;;6308939;22;20162;-61
2022/04/26 18:43:18;;;;;;;7.20;4.55;;;;;;;;;;6308952;22;20139;-61
2022/04/26 18:45:44;;;;;;;7.78;5.18;;;;;;;;;;6309522;22;20571;-59
2022/04/26 18:48:10;;;;;;;8.27;4.90;;;;;;;;;;6310337;22;20169;-61
2022/04/26 18:50:36;;;;;;;6.45;4.90;;;;;;;;;;6308655;22;20141;-60
2022/04/26 18:53:02;;;;;;;7.32;5.28;;;;;;;;;;6308076;22;20578;-60
2022/04/26 18:55:28;;;;;;;5.57;4.30;;;;;;;;;;6308537;22;20143;-61
2022/04/26 18:57:54;;;;;;;6.43;4.80;;;;;;;;;;6308179;22;20177;-60
2022/04/26 19:00:20;;;;;;;5.63;4.47;;;;;;;;;;6308814;22;20214;-61
2022/04/26 19:02:46;;;;;;;7.28;4.10;;;;;;;;;;6308187;22;20193;-60
2022/04/26 19:05:12;;;;;;;6.32;4.57;;;;;;;;;;6308490;22;20139;-60
2022/04/26 19:07:38;;;;;;;5.93;4.78;;;;;;;;;;6309065;22;20150;-61
2022/04/26 19:12:49;;;;;;;6.07;4.53;;;;;;;;;;6311109;22;20632;-61
2022/04/26 19:15:15;;;;;;;6.53;5.13;;;;;;;;;;6310057;22;20145;-60